Time;durP1;ratioP1;P1;durP2;ratioP2;P2;SDS_P1;SDS_P2;PMS_P1;PMS_P2;Temp;Humidity;BMP_temperature;BMP_pressure;BME280_temperature;BME280_humidity;BME280_pressure;Samples;Min_cycle;Max_cycle;Signal;HPM_P1;HPM_P2
2023/10/09 00:02:25;;;;;;;9.00;2.93;;;;;;;19.52;62.83;95135.22;5083090;28;20206;-45
2023/10/09 00:05:02;;;;;;;5.97;2.77;;;;;;;19.51;62.55;95136.19;5080715;28;20512;-45
2023/10/09 00:07:30;;;;;;;5.60;2.90;;;;;;;19.51;62.94;95120.63;5093751;28;20246;-44
2023/10/09 00:09:57;;;;;;;7.20;3.03;;;;;;;19.01;63.14;95055.59;5105775;28;20188;-45
2023/10/09 00:12:27;;;;;;;7.70;2.70;;;;;;;19.49;63.01;95138.97;5113470;28;20247;-45
2023/10/09 00:14:59;;;;;;;5.33;2.40;;;;;;;19.46;63.02;95133.34;5112413;28;20626;-44
2023/10/09 00:17:31;;;;;;;7.33;2.30;;;;;;;19.42;63.22;95132.88;5110974;28;20641;-44
2023/10/09 00:20:08;;;;;;;8.33;3.00;;;;;;;19.35;63.36;95126.84;5095888;27;20216;-43
2023/10/09 00:22:38;;;;;;;5.60;2.20;;;;;;;19.33;63.27;95123.59;5092605;28;20186;-44
2023/10/09 00:25:11;;;;;;;5.83;2.80;;;;;;;19.32;63.23;95132.38;5092721;28;20188;-45
2023/10/09 00:27:42;;;;;;;5.83;2.40;;;;;;;19.29;63.37;95128.34;5092867;28;20265;-46
2023/10/09 00:30:15;;;;;;;3.47;2.20;;;;;;;19.30;63.28;95134.34;5111450;28;20279;-46
2023/10/09 00:32:54;;;;;;;6.50;2.20;;;;;;;19.25;63.45;95126.28;5114263;28;20571;-44
2023/10/09 00:35:46;;;;;;;14.13;2.80;;;;;;;19.16;63.69;95117.81;5112379;28;20316;-45
2023/10/09 00:38:23;;;;;;;4.97;2.67;;;;;;;19.10;63.87;95118.53;5112301;28;20197;-46
2023/10/09 00:40:57;;;;;;;5.77;2.40;;;;;;;18.87;63.94;95090.13;5100650;28;20194;-45
2023/10/09 00:43:28;;;;;;;5.97;2.27;;;;;;;18.99;63.96;95124.16;5091644;28;20200;-45
2023/10/09 00:45:55;;;;;;;7.70;2.37;;;;;;;18.91;64.17;95122.47;5091738;28;20570;-45
2023/10/09 00:48:30;;;;;;;6.03;2.37;;;;;;;18.86;64.23;95114.41;5091315;28;20205;-43
2023/10/09 00:51:00;;;;;;;3.33;2.40;;;;;;;18.82;64.56;95107.16;5090273;28;20583;-45
2023/10/09 00:53:34;;;;;;;7.83;2.73;;;;;;;18.71;64.56;95111.81;5091100;28;20199;-44
2023/10/09 00:56:18;;;;;;;3.47;2.50;;;;;;;18.68;64.88;95127.69;5091411;28;20316;-45
2023/10/09 00:58:49;;;;;;;5.70;1.97;;;;;;;18.53;64.94;95127.66;5098586;28;20215;-44
2023/10/09 01:01:26;;;;;;;8.37;2.63;;;;;;;18.54;65.40;95136.25;5111708;28;20185;-44
2023/10/09 01:03:59;;;;;;;2.87;2.30;;;;;;;18.43;65.40;95136.66;5111618;28;20192;-45
2023/10/09 01:06:30;;;;;;;4.87;2.37;;;;;;;18.33;65.81;95146.47;5111802;28;20197;-45
2023/10/09 01:09:09;;;;;;;7.73;2.30;;;;;;;18.24;65.79;95148.31;5111727;28;20284;-43
2023/10/09 01:11:47;;;;;;;4.00;2.27;;;;;;;18.25;65.74;95153.28;5111656;28;20218;-45
2023/10/09 01:14:14;;;;;;;4.00;2.10;;;;;;;18.15;65.63;95157.91;5071005;28;20194;-44
2023/10/09 01:16:43;;;;;;;2.50;2.03;;;;;;;18.12;65.45;95166.00;5070711;28;20214;-44
2023/10/09 01:19:20;;;;;;;4.10;1.70;;;;;;;18.13;65.14;95180.56;5089867;28;20197;-45
2023/10/09 01:21:50;;;;;;;4.00;2.03;;;;;;;18.10;64.98;95164.59;5089506;28;20629;-44
2023/10/09 01:24:19;;;;;;;4.53;1.70;;;;;;;18.01;64.78;95167.22;5090372;28;20241;-45
2023/10/09 01:26:48;;;;;;;7.00;2.70;;;;;;;17.95;64.94;95173.06;5090962;28;20193;-45
2023/10/09 01:29:18;;;;;;;6.03;2.40;;;;;;;17.91;64.94;95183.94;5091053;28;20193;-45
2023/10/09 01:31:51;;;;;;;3.53;2.30;;;;;;;17.86;64.73;95194.00;5091264;28;20247;-45
2023/10/09 01:34:23;;;;;;;2.80;2.30;;;;;;;17.80;64.79;95198.09;5091242;28;20193;-45
2023/10/09 01:36:55;;;;;;;4.67;2.03;;;;;;;17.80;64.56;95205.84;5090671;28;20232;-46
2023/10/09 01:39:28;;;;;;;3.10;2.00;;;;;;;17.71;64.62;95191.31;5090638;28;20218;-46
2023/10/09 01:41:59;;;;;;;6.80;2.10;;;;;;;17.82;64.37;95197.91;5090368;28;20197;-44
2023/10/09 01:44:28;;;;;;;2.27;1.90;;;;;;;17.83;64.16;95195.13;5090829;28;20185;-45
2023/10/09 01:46:57;;;;;;;3.33;1.93;;;;;;;17.81;64.01;95191.94;5090625;28;20649;-45
2023/10/09 01:49:29;;;;;;;4.27;2.33;;;;;;;17.82;63.84;95201.28;5090605;28;20212;-44
2023/10/09 01:52:02;;;;;;;5.40;2.27;;;;;;;17.75;64.09;95205.56;5090112;28;20221;-45
2023/10/09 01:54:37;;;;;;;8.60;2.47;;;;;;;17.67;64.49;95214.13;5090377;28;20624;-45
2023/10/09 01:57:09;;;;;;;4.47;2.20;;;;;;;17.67;65.04;95226.25;5090029;28;20221;-45
2023/10/09 01:59:38;;;;;;;3.47;2.30;;;;;;;17.54;65.38;95226.78;5090890;28;20200;-44
2023/10/09 02:02:15;;;;;;;4.67;2.30;;;;;;;17.44;65.79;95220.97;5090742;28;20280;-45
2023/10/09 02:04:41;;;;;;;5.30;2.43;;;;;;;17.41;66.30;95223.91;5090655;28;20208;-49
2023/10/09 02:07:09;;;;;;;5.67;2.63;;;;;;;17.36;66.40;95239.94;5090005;28;20239;-44
2023/10/09 02:09:44;;;;;;;3.87;2.40;;;;;;;17.29;66.55;95250.13;5090299;28;20247;-44
2023/10/09 02:12:12;;;;;;;4.40;2.20;;;;;;;17.29;66.38;95241.56;5090048;28;20196;-45
2023/10/09 02:14:41;;;;;;;8.10;2.10;;;;;;;17.23;66.41;95239.66;5090112;28;20696;-44
2023/10/09 02:17:17;;;;;;;4.70;2.20;;;;;;;17.18;66.67;95224.59;5089957;28;20213;-43
2023/10/09 02:19:48;;;;;;;2.53;2.10;;;;;;;17.10;67.08;95226.41;5089943;28;20220;-43
2023/10/09 02:22:17;;;;;;;6.87;2.10;;;;;;;16.98;66.99;95234.50;5089506;28;20194;-42
2023/10/09 02:24:57;;;;;;;2.73;2.07;;;;;;;16.90;66.97;95239.69;5089897;28;20186;-44
2023/10/09 02:27:45;;;;;;;4.53;2.33;;;;;;;16.79;67.30;95252.91;5089577;28;20193;-44
2023/10/09 02:30:26;;;;;;;2.30;2.10;;;;;;;16.70;67.38;95267.56;5089705;28;20809;-45
2023/10/09 02:33:06;;;;;;;5.53;1.90;;;;;;;16.65;67.35;95263.88;5089816;28;20189;-44
2023/10/09 02:35:38;;;;;;;1.83;1.73;;;;;;;16.44;67.46;95249.66;5088145;28;20201;-44
2023/10/09 02:38:10;;;;;;;3.57;2.13;;;;;;;16.54;67.72;95267.59;5089531;28;20190;-44
2023/10/09 02:41:00;;;;;;;1.90;1.80;;;;;;;16.53;67.46;95282.25;5089587;28;20182;-43
2023/10/09 02:43:28;;;;;;;10.63;2.67;;;;;;;16.51;67.58;95276.44;5090018;28;20196;-44
2023/10/09 02:45:55;;;;;;;3.03;2.20;;;;;;;16.47;67.24;95271.75;5089272;28;20189;-43
2023/10/09 02:48:25;;;;;;;8.00;2.23;;;;;;;16.54;67.03;95278.72;5089524;28;20181;-44
2023/10/09 02:50:53;;;;;;;4.97;2.10;;;;;;;16.38;66.92;95263.19;5089053;28;20232;-44
2023/10/09 02:53:20;;;;;;;2.40;1.80;;;;;;;16.47;66.87;95279.50;5089406;28;20260;-44
2023/10/09 02:56:11;;;;;;;2.23;1.93;;;;;;;16.36;66.84;95267.69;5089503;28;20221;-44
2023/10/09 02:58:40;;;;;;;7.10;2.00;;;;;;;16.29;66.47;95277.88;5089499;28;20271;-44
2023/10/09 03:01:10;;;;;;;1.77;1.67;;;;;;;16.08;66.65;95259.44;5089593;28;20280;-44
2023/10/09 03:03:38;;;;;;;5.13;2.17;;;;;;;16.13;66.51;95271.84;5089444;28;20204;-44
2023/10/09 03:06:11;;;;;;;4.53;1.90;;;;;;;16.10;66.69;95275.53;5090160;28;20300;-46
2023/10/09 03:08:38;;;;;;;6.50;1.90;;;;;;;16.03;66.70;95287.47;5094058;28;20657;-45
2023/10/09 03:11:12;;;;;;;2.43;1.73;;;;;;;15.95;66.85;95290.84;5089201;28;20186;-44
2023/10/09 03:13:43;;;;;;;3.10;2.03;;;;;;;15.89;66.90;95294.06;5089373;28;20204;-44
2023/10/09 03:16:14;;;;;;;2.47;1.60;;;;;;;15.82;67.13;95287.88;5088922;28;20232;-44
2023/10/09 03:18:41;;;;;;;4.73;1.93;;;;;;;15.77;67.02;95288.34;5089510;28;20187;-43
2023/10/09 03:21:08;;;;;;;2.63;1.80;;;;;;;15.83;66.99;95299.00;5089294;28;20579;-43
2023/10/09 03:23:35;;;;;;;1.80;1.70;;;;;;;15.76;67.17;95311.72;5089256;28;20192;-44
2023/10/09 03:26:03;;;;;;;3.63;1.73;;;;;;;15.67;67.33;95308.31;5088970;28;20616;-44
2023/10/09 03:28:32;;;;;;;5.73;2.00;;;;;;;15.53;67.50;95286.41;5089058;28;20194;-45
2023/10/09 03:31:02;;;;;;;2.87;1.70;;;;;;;15.57;67.70;95308.34;5088980;28;20204;-45
2023/10/09 03:33:32;;;;;;;2.87;1.70;;;;;;;15.50;68.04;95311.69;5089452;28;20189;-45
2023/10/09 03:35:59;;;;;;;3.33;1.97;;;;;;;15.42;67.99;95317.63;5092733;28;20537;-46
2023/10/09 03:38:29;;;;;;;5.60;2.10;;;;;;;15.40;68.10;95329.84;5092784;28;20190;-45
2023/10/09 03:40:56;;;;;;;6.03;1.80;;;;;;;15.36;68.21;95332.88;5092850;28;20184;-45
2023/10/09 03:43:23;;;;;;;9.93;1.90;;;;;;;15.32;68.17;95329.78;5092593;28;20186;-45
2023/10/09 03:45:53;;;;;;;1.83;1.73;;;;;;;15.33;68.08;95334.00;5093021;28;20550;-45
2023/10/09 03:48:22;;;;;;;5.23;1.80;;;;;;;15.30;67.93;95324.78;5092729;28;20322;-43
2023/10/09 03:50:55;;;;;;;3.27;1.83;;;;;;;15.23;67.93;95312.66;5092599;28;20193;-44
2023/10/09 03:53:22;;;;;;;1.80;1.70;;;;;;;15.20;67.61;95324.09;5092848;28;20296;-45
2023/10/09 03:55:49;;;;;;;7.37;1.87;;;;;;;15.16;67.61;95325.34;5093057;28;20189;-44
2023/10/09 03:58:18;;;;;;;1.80;1.60;;;;;;;15.12;67.52;95331.75;5092878;28;20298;-44
2023/10/09 04:00:46;;;;;;;2.53;1.87;;;;;;;15.06;67.81;95342.66;5096298;28;20177;-44
2023/10/09 04:03:14;;;;;;;6.97;2.17;;;;;;;14.99;67.81;95333.91;5103370;28;20209;-44
2023/10/09 04:05:43;;;;;;;2.63;1.77;;;;;;;14.95;67.81;95343.69;5098114;28;20272;-43
2023/10/09 04:08:19;;;;;;;1.67;1.43;;;;;;;14.86;67.82;95330.91;5093528;28;20656;-44
2023/10/09 04:10:54;;;;;;;1.80;1.70;;;;;;;14.88;67.86;95345.25;5092335;28;20204;-45
2023/10/09 04:13:26;;;;;;;4.60;1.63;;;;;;;14.85;67.84;95339.56;5092598;28;20197;-46
2023/10/09 04:15:53;;;;;;;5.90;1.83;;;;;;;14.80;67.96;95340.81;5092354;28;20274;-43
2023/10/09 04:18:31;;;;;;;1.80;1.70;;;;;;;14.75;67.55;95330.16;5092359;28;20193;-43
2023/10/09 04:21:18;;;;;;;2.10;2.00;;;;;;;14.70;67.22;95334.13;5081018;28;20268;-43
2023/10/09 04:24:22;;;;;;;2.63;1.80;;;;;;;14.66;66.65;95333.63;5092434;28;20826;-44
2023/10/09 04:26:53;;;;;;;7.50;1.87;;;;;;;14.68;66.35;95338.59;5101537;28;20199;-44
2023/10/09 04:29:23;;;;;;;5.43;1.60;;;;;;;14.62;66.58;95345.16;5112170;28;20241;-43
2023/10/09 04:31:51;;;;;;;1.80;1.70;;;;;;;14.60;66.39;95349.66;5112331;28;20188;-45
2023/10/09 04:34:23;;;;;;;2.77;1.47;;;;;;;14.60;66.30;95352.25;5111979;28;20198;-44
2023/10/09 04:36:49;;;;;;;4.43;1.80;;;;;;;14.35;66.07;95309.16;5112366;28;20232;-43
2023/10/09 04:39:34;;;;;;;4.80;1.80;;;;;;;14.57;66.17;95342.22;5112079;28;20220;-44
2023/10/09 04:44:59;;;;;;;3.47;1.70;;;;;;;14.60;65.82;95349.66;5072523;28;20190;-45
2023/10/09 04:47:35;;;;;;;2.40;1.93;;;;;;;14.66;65.57;95349.06;5091868;28;20701;-45
2023/10/09 04:50:11;;;;;;;4.63;2.17;;;;;;;14.65;64.92;95346.66;5091784;28;20801;-42
2023/10/09 04:52:52;;;;;;;7.07;2.10;;;;;;;14.72;63.80;95353.66;5099711;28;20220;-43
2023/10/09 04:55:24;;;;;;;2.87;1.70;;;;;;;14.76;62.91;95351.56;5096338;28;20195;-44
2023/10/09 04:58:02;;;;;;;3.57;2.13;;;;;;;14.73;63.12;95341.56;5100028;28;20266;-44
2023/10/09 05:03:25;;;;;;;3.07;1.60;;;;;;;14.65;62.58;95350.03;5091494;28;20234;-44
2023/10/09 05:05:59;;;;;;;5.43;2.20;;;;;;;14.72;62.14;95363.09;5091760;28;20193;-44
2023/10/09 05:08:29;;;;;;;2.23;2.03;;;;;;;14.59;62.03;95348.03;5091138;28;20196;-45
2023/10/09 05:11:15;;;;;;;2.17;1.90;;;;;;;14.77;61.56;95366.06;5091746;28;20186;-44
2023/10/09 05:13:57;;;;;;;8.13;2.40;;;;;;;14.79;61.26;95361.56;5091407;28;20209;-43
2023/10/09 05:16:26;;;;;;;3.27;1.50;;;;;;;14.31;60.51;95288.06;5095863;28;20184;-43
2023/10/09 05:18:56;;;;;;;2.50;2.30;;;;;;;14.90;60.12;95368.28;5103517;28;20178;-43
2023/10/09 05:21:36;;;;;;;5.87;1.90;;;;;;;14.88;59.51;95365.84;5091247;28;20603;-43
2023/10/09 05:24:19;;;;;;;2.97;1.83;;;;;;;14.91;59.40;95369.91;5091553;28;20192;-44
2023/10/09 05:26:51;;;;;;;4.43;2.00;;;;;;;14.91;59.34;95375.06;5090759;28;20186;-43
2023/10/09 05:29:34;;;;;;;2.83;1.63;;;;;;;14.98;59.26;95391.50;5091110;28;20193;-44
2023/10/09 05:32:04;;;;;;;3.43;1.80;;;;;;;15.04;58.97;95398.66;5091209;28;20604;-44
2023/10/09 05:34:34;;;;;;;1.40;1.40;;;;;;;15.16;58.18;95407.78;5090587;28;20200;-43
2023/10/09 05:37:17;;;;;;;1.90;1.70;;;;;;;15.37;57.54;95402.34;5090787;28;20209;-45
2023/10/09 05:40:02;;;;;;;2.13;2.00;;;;;;;15.54;55.94;95398.91;5090517;28;20223;-43
2023/10/09 05:42:42;;;;;;;2.93;1.83;;;;;;;15.69;55.89;95385.50;5090634;28;20219;-45
2023/10/09 05:47:56;;;;;;;3.40;1.70;;;;;;;16.39;54.26;95421.47;5050234;28;20187;-43
2023/10/09 05:50:37;;;;;;;1.50;1.40;;;;;;;16.55;53.10;95417.19;5056437;28;20653;-44
2023/10/09 05:53:07;;;;;;;1.80;1.70;;;;;;;16.75;52.18;95424.69;5055074;28;20241;-43
2023/10/09 06:03:53;;;;;;;2.23;1.50;;;;;;;17.77;49.58;95439.03;5028004;28;20650;-45
2023/10/09 06:06:33;;;;;;;1.53;1.43;;;;;;;18.00;48.46;95442.56;5027643;28;20203;-45
2023/10/09 06:11:49;;;;;;;4.27;1.60;;;;;;;18.46;47.67;95452.31;4961790;28;20197;-44
2023/10/09 06:14:24;;;;;;;3.47;1.50;;;;;;;18.65;46.72;95457.09;4968336;28;20202;-44
2023/10/09 06:17:17;;;;;;;1.60;1.50;;;;;;;18.85;46.25;95454.09;4968881;28;20229;-45
2023/10/09 06:19:44;;;;;;;1.80;1.50;;;;;;;18.97;45.52;95458.75;4968721;28;20434;-45
2023/10/09 06:22:56;;;;;;;2.00;1.70;;;;;;;19.22;44.73;95463.78;4969008;28;20297;-44
2023/10/09 06:25:18;;;;;;;1.77;1.67;;;;;;;19.37;44.42;95464.66;5002859;28;20675;-46
2023/10/09 06:28:01;;;;;;;2.80;1.47;;;;;;;19.50;43.83;95466.66;5026176;28;20236;-44
2023/10/09 06:30:28;;;;;;;6.10;1.70;;;;;;;19.63;44.16;95481.69;5022941;28;20215;-45
2023/10/09 06:33:19;;;;;;;2.30;1.80;;;;;;;19.79;43.64;95478.97;5027667;28;20289;-45
2023/10/09 06:35:53;;;;;;;1.40;1.30;;;;;;;19.98;43.18;95473.25;5027611;28;20730;-44
2023/10/09 06:38:23;;;;;;;3.00;1.60;;;;;;;20.10;42.18;95465.84;5007444;28;20231;-44
2023/10/09 06:43:42;;;;;;;2.17;1.67;;;;;;;20.30;42.17;95461.75;5017487;28;20202;-45
2023/10/09 06:52:15;;;;;;;3.03;1.70;;;;;;;20.65;40.19;95469.03;4971469;28;20592;-44
2023/10/09 06:54:50;;;;;;;2.88;1.70;;;;;;;20.71;40.37;95473.50;4968410;28;20252;-43
2023/10/09 06:57:43;;;;;;;1.48;1.33;;;;;;;20.87;40.07;95475.91;4968383;28;20228;-46
2023/10/09 07:00:51;;;;;;;3.67;1.83;;;;;;;21.14;40.34;95463.19;4968589;28;20277;-43
2023/10/09 07:03:11;;;;;;;3.53;1.88;;;;;;;21.36;38.89;95464.84;4971122;28;20609;-43
2023/10/09 07:06:00;;;;;;;2.25;1.52;;;;;;;21.35;38.38;95460.63;4968044;28;20200;-45
2023/10/09 07:08:36;;;;;;;1.92;1.60;;;;;;;21.26;37.71;95461.72;4981075;28;20200;-47
2023/10/09 07:13:52;;;;;;;2.10;1.90;;;;;;;21.22;38.69;95476.09;4979637;28;20201;-45
2023/10/09 07:16:24;;;;;;;4.30;1.80;;;;;;;21.48;38.06;95467.78;4972807;28;20224;-45
2023/10/09 07:18:54;;;;;;;5.50;1.70;;;;;;;21.69;37.20;95472.97;4991274;28;20252;-44
2023/10/09 07:21:27;;;;;;;3.22;2.45;;;;;;;21.70;36.77;95471.97;5069810;28;20186;-44
2023/10/09 07:23:57;;;;;;;2.67;1.60;;;;;;;21.61;37.15;95473.09;5070491;28;20577;-43
2023/10/09 07:26:36;;;;;;;3.03;1.40;;;;;;;21.53;36.63;95470.63;5082803;28;20591;-43
2023/10/09 07:29:18;;;;;;;1.98;1.40;;;;;;;20.69;36.77;95368.91;5102351;28;20189;-45
2023/10/09 07:31:46;;;;;;;1.58;1.48;;;;;;;21.29;37.22;95472.56;5113284;28;20221;-44
2023/10/09 07:36:57;;;;;;;1.73;1.60;;;;;;;21.53;36.85;95479.22;5098472;28;20274;-43
2023/10/09 07:39:24;;;;;;;3.13;1.63;;;;;;;21.67;36.15;95472.34;5093493;28;20177;-44
2023/10/09 07:42:01;;;;;;;4.13;1.50;;;;;;;21.81;36.03;95480.28;5093042;28;20621;-44
2023/10/09 07:44:37;;;;;;;1.85;1.75;;;;;;;21.91;35.80;95476.34;5108198;28;20220;-44
2023/10/09 07:47:22;;;;;;;1.98;1.85;;;;;;;21.79;35.09;95470.03;5113148;28;20249;-43
2023/10/09 07:49:53;;;;;;;4.15;1.60;;;;;;;21.63;36.52;95459.88;5113280;28;20192;-43
2023/10/09 07:52:22;;;;;;;4.80;1.73;;;;;;;21.87;36.05;95482.13;5112206;28;20323;-44
2023/10/09 07:54:52;;;;;;;3.22;1.70;;;;;;;21.94;34.89;95475.97;5108818;28;20178;-45
2023/10/09 07:57:25;;;;;;;4.18;1.90;;;;;;;21.90;35.32;95487.78;5092221;28;20265;-43
2023/10/09 08:00:00;;;;;;;1.80;1.70;;;;;;;21.67;35.63;95477.53;5092516;28;20568;-45
2023/10/09 08:02:32;;;;;;;2.05;1.95;;;;;;;21.78;35.17;95484.84;5092676;28;20376;-44
2023/10/09 08:05:06;;;;;;;2.50;1.77;;;;;;;21.76;35.04;95492.06;5092651;28;20285;-43
2023/10/09 08:07:37;;;;;;;1.50;1.40;;;;;;;21.72;35.42;95492.63;5106052;28;20200;-43
2023/10/09 08:13:19;;;;;;;1.95;1.50;;;;;;;21.79;34.30;95488.25;5026349;28;20242;-44
2023/10/09 08:15:53;;;;;;;1.42;1.33;;;;;;;21.64;34.51;95477.94;5025867;28;20674;-45
2023/10/09 08:18:27;;;;;;;1.70;1.60;;;;;;;21.57;34.89;95486.66;5020561;28;20227;-44
2023/10/09 08:23:49;;;;;;;2.42;1.25;;;;;;;21.51;35.25;95485.63;5027843;28;20238;-44
2023/10/09 08:26:28;;;;;;;2.08;1.70;;;;;;;21.66;35.23;95473.34;5029224;28;20195;-45
2023/10/09 08:29:15;;;;;;;1.63;1.52;;;;;;;21.82;35.51;95469.66;5035681;28;20215;-45
2023/10/09 08:31:46;;;;;;;2.17;1.40;;;;;;;21.83;34.82;95473.06;5037059;28;20219;-43
2023/10/09 08:34:24;;;;;;;1.25;1.25;;;;;;;21.89;34.92;95464.50;5029495;28;20195;-46
2023/10/09 08:36:53;;;;;;;1.98;1.77;;;;;;;21.89;35.44;95459.28;5029246;28;20226;-43
2023/10/09 08:39:26;;;;;;;2.65;1.52;;;;;;;21.88;34.34;95444.66;5024186;28;20221;-45
2023/10/09 08:41:57;;;;;;;3.97;1.50;;;;;;;21.41;34.73;95407.84;5020286;28;20262;-43
2023/10/09 08:44:27;;;;;;;5.15;1.70;;;;;;;21.63;34.71;95439.88;5022741;28;20226;-44
2023/10/09 08:46:57;;;;;;;2.53;1.73;;;;;;;21.58;34.74;95450.03;5028300;28;20325;-44
2023/10/09 08:49:24;;;;;;;4.75;1.67;;;;;;;21.61;34.64;95439.25;5076470;28;20209;-45
2023/10/09 08:51:53;;;;;;;2.60;1.38;;;;;;;21.55;34.39;95429.59;5090986;28;20294;-44
2023/10/09 08:54:20;;;;;;;1.95;1.85;;;;;;;21.44;34.14;95427.50;5090840;28;20217;-43
2023/10/09 08:56:50;;;;;;;1.80;1.70;;;;;;;21.33;34.02;95412.38;5091141;28;20239;-44
2023/10/09 08:59:19;;;;;;;2.28;1.90;;;;;;;21.14;34.28;95429.38;5090826;28;20278;-44
2023/10/09 09:01:49;;;;;;;5.18;1.75;;;;;;;21.00;34.65;95424.03;5091536;28;20255;-44
2023/10/09 09:04:39;;;;;;;1.55;1.45;;;;;;;20.94;34.24;95429.16;5090887;28;20255;-44
2023/10/09 09:07:06;;;;;;;1.83;1.40;;;;;;;20.79;34.52;95427.41;5090128;28;20651;-44
2023/10/09 09:09:34;;;;;;;1.65;1.55;;;;;;;20.73;34.87;95428.16;5090761;28;20182;-44
2023/10/09 09:12:01;;;;;;;2.35;1.95;;;;;;;20.70;35.19;95430.31;5090470;28;20258;-43
2023/10/09 09:14:37;;;;;;;1.30;1.30;;;;;;;20.63;34.84;95438.00;5090357;28;20189;-44
2023/10/09 09:17:05;;;;;;;1.80;1.52;;;;;;;20.54;35.14;95436.50;5090743;28;20276;-44
2023/10/09 09:19:37;;;;;;;3.22;1.70;;;;;;;20.47;35.20;95440.78;5092839;28;20209;-44
2023/10/09 09:22:13;;;;;;;2.75;1.30;;;;;;;20.42;35.65;95430.94;5090307;28;20186;-43
2023/10/09 09:24:46;;;;;;;2.13;1.92;;;;;;;20.51;35.17;95419.50;5090446;28;20576;-45
2023/10/09 09:27:20;;;;;;;3.25;1.92;;;;;;;20.48;35.20;95430.25;5090188;28;20185;-46
2023/10/09 09:29:53;;;;;;;1.48;1.38;;;;;;;20.41;35.34;95416.31;5090244;28;20635;-44
2023/10/09 09:32:35;;;;;;;3.72;1.65;;;;;;;20.45;34.86;95421.97;5093899;28;20239;-44
2023/10/09 09:35:04;;;;;;;3.33;1.63;;;;;;;20.32;35.33;95417.41;5089278;28;20295;-44
2023/10/09 09:37:50;;;;;;;2.53;1.80;;;;;;;20.24;35.49;95407.91;5089734;28;20221;-45
2023/10/09 09:40:29;;;;;;;2.00;1.80;;;;;;;20.17;34.76;95398.44;5090045;28;20198;-44
2023/10/09 09:43:04;;;;;;;1.77;1.67;;;;;;;20.20;35.07;95404.03;5088849;28;20284;-46
2023/10/09 09:45:33;;;;;;;5.88;1.77;;;;;;;20.24;34.92;95407.09;5090149;28;20198;-46
2023/10/09 09:48:05;;;;;;;2.00;1.77;;;;;;;20.11;35.13;95381.75;5090295;28;20190;-45
2023/10/09 09:50:33;;;;;;;1.70;1.60;;;;;;;20.25;34.91;95398.31;5089722;28;20276;-44
2023/10/09 09:53:01;;;;;;;2.13;1.85;;;;;;;20.31;35.95;95413.19;5090546;28;20221;-44
2023/10/09 09:55:35;;;;;;;3.20;1.88;;;;;;;20.35;34.70;95400.66;5091347;28;20193;-45
2023/10/09 09:58:06;;;;;;;3.08;1.70;;;;;;;20.12;34.49;95357.41;5088952;28;20243;-44
2023/10/09 10:00:43;;;;;;;2.00;1.87;;;;;;;20.27;34.99;95386.78;5090112;28;20212;-44
2023/10/09 10:03:14;;;;;;;3.28;2.08;;;;;;;20.31;34.65;95374.22;5090066;28;20197;-45
2023/10/09 10:05:46;;;;;;;3.65;1.77;;;;;;;20.24;34.38;95358.53;5091272;28;20197;-43
2023/10/09 10:08:19;;;;;;;1.70;1.60;;;;;;;20.33;33.89;95374.03;5093310;28;20200;-44
2023/10/09 10:10:52;;;;;;;2.30;1.77;;;;;;;20.30;34.50;95359.63;5092649;28;20197;-54
2023/10/09 10:14:01;;;;;;;4.45;1.75;;;;;;;20.38;34.29;95362.13;5092113;28;20260;-44
2023/10/09 10:16:34;;;;;;;1.77;1.65;;;;;;;20.48;34.80;95349.69;5094003;28;20843;-45
2023/10/09 10:19:21;;;;;;;2.03;1.80;;;;;;;20.64;33.70;95346.06;5093426;28;20285;-44
2023/10/09 10:21:50;;;;;;;5.57;2.03;;;;;;;20.67;32.90;95330.09;5092417;28;20281;-44
2023/10/09 10:24:59;;;;;;;4.82;1.85;;;;;;;20.74;32.49;95330.97;5092860;28;20282;-44
2023/10/09 10:27:27;;;;;;;2.45;1.58;;;;;;;20.80;32.92;95327.63;5090321;28;20272;-43
2023/10/09 10:30:33;;;;;;;3.20;1.80;;;;;;;20.89;32.73;95317.91;5090049;28;20197;-44
2023/10/09 10:33:09;;;;;;;3.88;1.88;;;;;;;20.71;32.91;95312.31;5090013;28;20686;-45
2023/10/09 10:38:32;;;;;;;2.45;1.55;;;;;;;20.48;33.47;95304.72;5091307;28;20209;-44
2023/10/09 10:41:12;;;;;;;2.00;1.90;;;;;;;20.43;34.01;95302.63;5089970;28;20262;-43
2023/10/09 10:43:54;;;;;;;2.88;1.75;;;;;;;20.40;33.89;95284.00;5088977;28;20242;-44
2023/10/09 10:46:30;;;;;;;2.30;1.75;;;;;;;20.34;33.70;95262.16;5089391;28;20197;-44
2023/10/09 10:48:59;;;;;;;5.53;1.85;;;;;;;20.45;33.06;95279.06;5092228;28;20201;-44
2023/10/09 10:51:34;;;;;;;5.00;2.15;;;;;;;20.42;33.28;95277.66;5088904;28;20286;-44
2023/10/09 10:56:49;;;;;;;1.80;1.70;;;;;;;20.50;34.04;95277.53;5090418;28;20705;-45
2023/10/09 10:59:22;;;;;;;1.70;1.60;;;;;;;20.52;34.78;95269.56;5088861;28;20221;-44
2023/10/09 11:02:13;;;;;;;3.42;1.98;;;;;;;20.52;34.90;95265.19;5086598;28;20268;-44
2023/10/09 11:04:41;;;;;;;2.28;1.63;;;;;;;20.71;34.14;95262.94;5088501;28;20262;-45
2023/10/09 11:07:12;;;;;;;3.13;2.00;;;;;;;20.70;34.43;95269.13;5088671;28;20190;-43
2023/10/09 11:10:10;;;;;;;2.05;1.85;;;;;;;20.80;34.04;95267.81;5090835;28;20230;-43
2023/10/09 11:13:29;;;;;;;1.85;1.73;;;;;;;20.87;34.01;95248.88;5087845;28;20250;-44
2023/10/09 11:15:44;;;;;;;1.63;1.52;;;;;;;20.83;34.18;95240.66;5086556;28;20221;-44
2023/10/09 11:18:19;;;;;;;1.73;1.38;;;;;;;20.88;34.31;95230.50;5088188;28;20205;-44
2023/10/09 11:20:56;;;;;;;2.70;1.80;;;;;;;21.04;33.87;95238.03;5088391;28;20281;-43
2023/10/09 11:23:29;;;;;;;2.15;1.98;;;;;;;21.04;33.96;95224.22;5087728;28;20193;-44
2023/10/09 11:26:20;;;;;;;3.25;1.70;;;;;;;21.08;33.43;95222.06;5088077;28;20221;-44
2023/10/09 11:28:50;;;;;;;3.33;2.20;;;;;;;21.11;33.54;95214.66;5088057;28;20626;-44
2023/10/09 11:31:17;;;;;;;2.53;2.08;;;;;;;21.13;33.40;95214.47;5090173;28;20216;-44
2023/10/09 11:33:48;;;;;;;4.07;1.92;;;;;;;21.14;33.44;95213.47;5088164;28;20282;-44
2023/10/09 11:36:15;;;;;;;1.70;1.60;;;;;;;21.19;33.79;95217.09;5087037;28;20263;-44
2023/10/09 11:38:45;;;;;;;3.90;1.80;;;;;;;21.34;33.56;95211.84;5087476;28;20221;-43
2023/10/09 11:41:24;;;;;;;3.90;3.13;;;;;;;21.47;32.89;95221.53;5087765;28;20568;-45
2023/10/09 11:43:53;;;;;;;4.72;2.80;;;;;;;21.40;32.59;95203.25;5086399;28;20214;-43
2023/10/09 11:46:39;;;;;;;3.33;2.70;;;;;;;;;;5088317;28;20487;-44
2023/10/09 11:49:32;;;;;;;2.55;2.17;;;;;;;21.23;32.94;95186.31;5088334;28;20190;-43
2023/10/09 11:54:56;;;;;;;3.63;1.88;;;;;;;21.38;33.37;95181.03;5088565;28;20277;-44
2023/10/09 11:57:30;;;;;;;4.05;2.08;;;;;;;21.47;33.52;95172.88;5088204;28;20213;-42
2023/10/09 12:00:00;;;;;;;2.20;2.00;;;;;;;21.64;33.42;95175.97;5093641;28;20234;-44
2023/10/09 12:02:27;;;;;;;1.83;1.70;;;;;;;21.59;32.57;95141.06;5090917;28;20210;-44
2023/10/09 12:04:55;;;;;;;2.17;1.83;;;;;;;21.73;32.65;95156.56;5091266;28;20671;-44
2023/10/09 12:07:25;;;;;;;1.77;1.67;;;;;;;21.81;32.77;95160.00;5091696;28;20193;-43
2023/10/09 12:09:56;;;;;;;1.90;1.60;;;;;;;21.88;32.23;95148.59;5091024;28;20193;-45
2023/10/09 12:12:26;;;;;;;1.85;1.75;;;;;;;21.90;32.34;95145.78;5091580;28;20261;-44
2023/10/09 12:14:54;;;;;;;6.32;2.05;;;;;;;22.00;32.44;95152.22;5091542;28;20748;-44
2023/10/09 12:17:25;;;;;;;2.67;1.90;;;;;;;22.11;31.35;95152.66;5091650;28;20236;-45
2023/10/09 12:19:52;;;;;;;5.28;1.85;;;;;;;22.11;31.23;95148.25;5089656;28;20243;-43
2023/10/09 12:22:21;;;;;;;5.53;2.08;;;;;;;22.16;31.19;95148.47;5094868;28;20190;-44
2023/10/09 12:24:48;;;;;;;5.55;1.90;;;;;;;22.15;31.17;95131.25;5089149;28;20193;-45
2023/10/09 12:27:20;;;;;;;3.53;1.85;;;;;;;22.27;31.14;95152.28;5093863;28;20196;-43
2023/10/09 12:29:47;;;;;;;2.72;1.38;;;;;;;22.29;29.24;95135.47;5091239;28;20198;-44
2023/10/09 12:32:19;;;;;;;2.53;1.98;;;;;;;22.32;29.13;95136.84;5090227;28;20277;-43
2023/10/09 12:34:50;;;;;;;4.35;1.70;;;;;;;22.32;29.28;95142.06;5090583;28;20188;-45
2023/10/09 12:37:20;;;;;;;4.25;1.73;;;;;;;22.37;29.20;95133.69;5091444;28;20584;-45
2023/10/09 12:39:47;;;;;;;2.17;1.77;;;;;;;21.75;28.13;95016.56;5090845;28;20279;-43
2023/10/09 12:42:16;;;;;;;1.92;1.67;;;;;;;22.44;28.09;95117.03;5091130;28;20233;-44
2023/10/09 12:44:44;;;;;;;3.67;1.58;;;;;;;22.34;28.54;95100.19;5091878;28;20243;-43
2023/10/09 12:47:12;;;;;;;1.65;1.50;;;;;;;22.48;27.58;95115.63;5091376;28;20230;-43
2023/10/09 12:49:40;;;;;;;4.45;1.70;;;;;;;22.40;27.21;95105.38;5091377;28;20217;-43
2023/10/09 12:52:15;;;;;;;2.00;1.75;;;;;;;22.43;28.09;95109.41;5088576;28;20243;-43
2023/10/09 12:54:43;;;;;;;2.97;1.40;;;;;;;22.43;27.79;95099.00;5091517;28;20185;-43